sensor_id;sensor_type;location;lat;lon;timestamp;temperature;humidity
17202;DHT22;8717;53.588;10.176;2023-02-03T00:01:53;3.40;99.90
17202;DHT22;8717;53.588;10.176;2023-02-03T00:04:20;3.50;99.90
17202;DHT22;8717;53.588;10.176;2023-02-03T00:06:47;3.50;99.90
17202;DHT22;8717;53.588;10.176;2023-02-03T00:09:15;3.60;99.90
17202;DHT22;8717;53.588;10.176;2023-02-03T00:11:43;3.60;99.90
17202;DHT22;8717;53.588;10.176;2023-02-03T00:14:10;3.70;99.90
17202;DHT22;8717;53.588;10.176;2023-02-03T00:16:37;3.70;99.90
17202;DHT22;8717;53.588;10.176;2023-02-03T00:19:04;3.70;99.90
17202;DHT22;8717;53.588;10.176;2023-02-03T00:21:30;3.80;99.90
17202;DHT22;8717;53.588;10.176;2023-02-03T00:23:57;3.80;99.90
17202;DHT22;8717;53.588;10.176;2023-02-03T00:26:24;3.80;99.90
17202;DHT22;8717;53.588;10.176;2023-02-03T00:28:54;3.90;99.90
17202;DHT22;8717;53.588;10.176;2023-02-03T00:31:23;3.90;99.90
17202;DHT22;8717;53.588;10.176;2023-02-03T00:33:53;4.00;99.90
17202;DHT22;8717;53.588;10.176;2023-02-03T00:36:20;4.00;99.90
17202;DHT22;8717;53.588;10.176;2023-02-03T00:38:47;4.10;99.90
17202;DHT22;8717;53.588;10.176;2023-02-03T00:41:14;4.10;99.90
17202;DHT22;8717;53.588;10.176;2023-02-03T00:43:41;4.20;99.90
17202;DHT22;8717;53.588;10.176;2023-02-03T00:46:12;4.30;99.90
17202;DHT22;8717;53.588;10.176;2023-02-03T00:48:39;4.30;99.90
17202;DHT22;8717;53.588;10.176;2023-02-03T00:51:06;4.30;99.90
17202;DHT22;8717;53.588;10.176;2023-02-03T00:53:32;4.40;99.90
17202;DHT22;8717;53.588;10.176;2023-02-03T00:56:00;4.50;99.90
17202;DHT22;8717;53.588;10.176;2023-02-03T00:58:27;4.50;99.90
17202;DHT22;8717;53.588;10.176;2023-02-03T01:00:54;4.60;99.90
17202;DHT22;8717;53.588;10.176;2023-02-03T01:03:23;4.70;99.90
17202;DHT22;8717;53.588;10.176;2023-02-03T01:05:50;4.80;99.90
17202;DHT22;8717;53.588;10.176;2023-02-03T01:08:18;4.90;99.90
17202;DHT22;8717;53.588;10.176;2023-02-03T01:10:45;5.00;99.90
17202;DHT22;8717;53.588;10.176;2023-02-03T01:13:12;5.10;99.90
17202;DHT22;8717;53.588;10.176;2023-02-03T01:15:44;5.20;99.90
17202;DHT22;8717;53.588;10.176;2023-02-03T01:18:12;5.40;99.90
17202;DHT22;8717;53.588;10.176;2023-02-03T01:20:40;5.40;99.90
17202;DHT22;8717;53.588;10.176;2023-02-03T01:23:07;5.40;99.90
17202;DHT22;8717;53.588;10.176;2023-02-03T01:25:34;5.50;99.90
17202;DHT22;8717;53.588;10.176;2023-02-03T01:28:00;5.60;99.90
17202;DHT22;8717;53.588;10.176;2023-02-03T01:30:27;5.70;99.90
17202;DHT22;8717;53.588;10.176;2023-02-03T01:32:54;5.80;99.90
17202;DHT22;8717;53.588;10.176;2023-02-03T01:35:21;5.80;99.90
17202;DHT22;8717;53.588;10.176;2023-02-03T01:37:49;5.90;99.90
17202;DHT22;8717;53.588;10.176;2023-02-03T01:40:16;6.00;99.90
17202;DHT22;8717;53.588;10.176;2023-02-03T01:42:43;6.00;99.90
17202;DHT22;8717;53.588;10.176;2023-02-03T01:45:10;6.10;99.90
17202;DHT22;8717;53.588;10.176;2023-02-03T01:47:42;6.10;99.90
17202;DHT22;8717;53.588;10.176;2023-02-03T01:50:14;6.20;99.90
17202;DHT22;8717;53.588;10.176;2023-02-03T01:52:44;6.20;99.90
17202;DHT22;8717;53.588;10.176;2023-02-03T01:55:18;6.20;99.90
17202;DHT22;8717;53.588;10.176;2023-02-03T01:57:48;6.30;99.90
17202;DHT22;8717;53.588;10.176;2023-02-03T02:00:17;6.30;99.90
17202;DHT22;8717;53.588;10.176;2023-02-03T02:02:45;6.40;99.90
17202;DHT22;8717;53.588;10.176;2023-02-03T02:05:16;6.40;99.90
17202;DHT22;8717;53.588;10.176;2023-02-03T02:07:45;6.40;99.90
17202;DHT22;8717;53.588;10.176;2023-02-03T02:10:14;6.40;99.90
17202;DHT22;8717;53.588;10.176;2023-02-03T02:12:41;6.40;99.90
17202;DHT22;8717;53.588;10.176;2023-02-03T02:15:09;6.40;99.90
17202;DHT22;8717;53.588;10.176;2023-02-03T02:18:06;6.50;99.90
17202;DHT22;8717;53.588;10.176;2023-02-03T02:21:11;6.50;99.90
17202;DHT22;8717;53.588;10.176;2023-02-03T02:24:11;6.50;99.90
17202;DHT22;8717;53.588;10.176;2023-02-03T02:27:04;6.50;99.90
17202;DHT22;8717;53.588;10.176;2023-02-03T02:32:42;6.50;99.90
17202;DHT22;8717;53.588;10.176;2023-02-03T02:35:18;6.50;99.90
17202;DHT22;8717;53.588;10.176;2023-02-03T02:37:54;6.50;99.90
17202;DHT22;8717;53.588;10.176;2023-02-03T02:40:31;6.50;99.90
17202;DHT22;8717;53.588;10.176;2023-02-03T02:43:05;6.50;99.90
17202;DHT22;8717;53.588;10.176;2023-02-03T02:45:42;6.50;99.90
17202;DHT22;8717;53.588;10.176;2023-02-03T02:48:16;6.50;99.90
17202;DHT22;8717;53.588;10.176;2023-02-03T02:50:48;6.50;99.90
17202;DHT22;8717;53.588;10.176;2023-02-03T02:53:19;6.50;99.90
17202;DHT22;8717;53.588;10.176;2023-02-03T02:55:48;6.60;99.90
17202;DHT22;8717;53.588;10.176;2023-02-03T02:58:18;6.50;99.90
17202;DHT22;8717;53.588;10.176;2023-02-03T03:00:45;6.60;99.90
17202;DHT22;8717;53.588;10.176;2023-02-03T03:03:15;6.60;99.90
17202;DHT22;8717;53.588;10.176;2023-02-03T03:05:46;6.50;99.90
17202;DHT22;8717;53.588;10.176;2023-02-03T03:08:21;6.60;99.90
17202;DHT22;8717;53.588;10.176;2023-02-03T03:10:50;6.60;99.90
17202;DHT22;8717;53.588;10.176;2023-02-03T03:13:22;6.60;99.90
17202;DHT22;8717;53.588;10.176;2023-02-03T03:15:51;6.60;99.90
17202;DHT22;8717;53.588;10.176;2023-02-03T03:18:23;6.60;99.90
17202;DHT22;8717;53.588;10.176;2023-02-03T03:20:52;6.60;99.90
17202;DHT22;8717;53.588;10.176;2023-02-03T03:23:25;6.60;99.90
17202;DHT22;8717;53.588;10.176;2023-02-03T03:25:56;6.60;99.90
17202;DHT22;8717;53.588;10.176;2023-02-03T03:28:29;6.60;99.90
17202;DHT22;8717;53.588;10.176;2023-02-03T03:31:01;6.60;99.90
17202;DHT22;8717;53.588;10.176;2023-02-03T03:33:29;6.70;99.90
17202;DHT22;8717;53.588;10.176;2023-02-03T03:36:00;6.60;99.90
17202;DHT22;8717;53.588;10.176;2023-02-03T03:38:33;6.60;99.90
17202;DHT22;8717;53.588;10.176;2023-02-03T03:41:06;6.70;99.90
17202;DHT22;8717;53.588;10.176;2023-02-03T03:43:37;6.70;99.90
17202;DHT22;8717;53.588;10.176;2023-02-03T03:46:11;6.70;99.90
17202;DHT22;8717;53.588;10.176;2023-02-03T03:48:42;6.70;99.90
17202;DHT22;8717;53.588;10.176;2023-02-03T03:51:17;6.70;99.90
17202;DHT22;8717;53.588;10.176;2023-02-03T03:53:47;6.70;99.90
17202;DHT22;8717;53.588;10.176;2023-02-03T03:56:23;6.70;99.90
17202;DHT22;8717;53.588;10.176;2023-02-03T03:58:52;6.70;99.90
17202;DHT22;8717;53.588;10.176;2023-02-03T04:01:20;6.70;99.90
17202;DHT22;8717;53.588;10.176;2023-02-03T04:03:53;6.70;99.90
17202;DHT22;8717;53.588;10.176;2023-02-03T04:06:22;6.70;99.90
17202;DHT22;8717;53.588;10.176;2023-02-03T04:08:49;6.70;99.90
17202;DHT22;8717;53.588;10.176;2023-02-03T04:11:16;6.70;99.90
17202;DHT22;8717;53.588;10.176;2023-02-03T04:13:57;6.70;99.90
17202;DHT22;8717;53.588;10.176;2023-02-03T04:16:24;6.70;99.90
17202;DHT22;8717;53.588;10.176;2023-02-03T04:18:52;6.70;99.90
17202;DHT22;8717;53.588;10.176;2023-02-03T04:21:19;6.60;99.90
17202;DHT22;8717;53.588;10.176;2023-02-03T04:23:46;6.60;99.90
17202;DHT22;8717;53.588;10.176;2023-02-03T04:26:13;6.60;99.90
17202;DHT22;8717;53.588;10.176;2023-02-03T04:28:40;6.60;99.90
17202;DHT22;8717;53.588;10.176;2023-02-03T04:31:06;6.60;99.90
17202;DHT22;8717;53.588;10.176;2023-02-03T04:33:33;6.60;99.90
17202;DHT22;8717;53.588;10.176;2023-02-03T04:36:01;6.60;99.90
17202;DHT22;8717;53.588;10.176;2023-02-03T04:38:28;6.60;99.90
17202;DHT22;8717;53.588;10.176;2023-02-03T04:40:55;6.60;99.90
17202;DHT22;8717;53.588;10.176;2023-02-03T04:43:21;6.60;99.90
17202;DHT22;8717;53.588;10.176;2023-02-03T04:45:48;6.60;99.90
17202;DHT22;8717;53.588;10.176;2023-02-03T04:48:15;6.60;99.90
17202;DHT22;8717;53.588;10.176;2023-02-03T04:50:41;6.50;99.90
17202;DHT22;8717;53.588;10.176;2023-02-03T04:53:09;6.50;99.90
17202;DHT22;8717;53.588;10.176;2023-02-03T04:55:36;6.50;99.90
17202;DHT22;8717;53.588;10.176;2023-02-03T04:58:03;6.50;99.90
17202;DHT22;8717;53.588;10.176;2023-02-03T05:00:30;6.60;99.90
17202;DHT22;8717;53.588;10.176;2023-02-03T05:02:57;6.50;99.90
17202;DHT22;8717;53.588;10.176;2023-02-03T05:05:27;6.60;99.90
17202;DHT22;8717;53.588;10.176;2023-02-03T05:07:53;6.60;99.90
17202;DHT22;8717;53.588;10.176;2023-02-03T05:10:21;6.60;99.90
17202;DHT22;8717;53.588;10.176;2023-02-03T05:12:48;6.60;99.90
17202;DHT22;8717;53.588;10.176;2023-02-03T05:15:15;6.60;99.90
17202;DHT22;8717;53.588;10.176;2023-02-03T05:17:42;6.60;99.90
17202;DHT22;8717;53.588;10.176;2023-02-03T05:20:10;6.60;99.90
17202;DHT22;8717;53.588;10.176;2023-02-03T05:22:36;6.60;99.90
17202;DHT22;8717;53.588;10.176;2023-02-03T05:25:04;6.60;99.90
17202;DHT22;8717;53.588;10.176;2023-02-03T05:27:32;6.60;99.90
17202;DHT22;8717;53.588;10.176;2023-02-03T05:29:59;6.50;99.90
17202;DHT22;8717;53.588;10.176;2023-02-03T05:32:25;6.50;99.90
17202;DHT22;8717;53.588;10.176;2023-02-03T05:34:52;6.60;99.90
17202;DHT22;8717;53.588;10.176;2023-02-03T05:37:19;6.60;99.90
17202;DHT22;8717;53.588;10.176;2023-02-03T05:39:46;6.60;99.90
17202;DHT22;8717;53.588;10.176;2023-02-03T05:42:13;6.60;99.90
17202;DHT22;8717;53.588;10.176;2023-02-03T05:44:40;6.60;99.90
17202;DHT22;8717;53.588;10.176;2023-02-03T05:47:07;6.60;99.90
17202;DHT22;8717;53.588;10.176;2023-02-03T05:49:34;6.60;99.90
17202;DHT22;8717;53.588;10.176;2023-02-03T05:52:01;6.60;99.90
17202;DHT22;8717;53.588;10.176;2023-02-03T05:54:27;6.60;99.90
17202;DHT22;8717;53.588;10.176;2023-02-03T05:56:54;6.60;99.90
17202;DHT22;8717;53.588;10.176;2023-02-03T05:59:21;6.70;99.90
17202;DHT22;8717;53.588;10.176;2023-02-03T06:01:50;6.60;99.90
17202;DHT22;8717;53.588;10.176;2023-02-03T06:04:17;6.60;99.90
17202;DHT22;8717;53.588;10.176;2023-02-03T06:06:44;6.60;99.90
17202;DHT22;8717;53.588;10.176;2023-02-03T06:09:12;6.60;99.90
17202;DHT22;8717;53.588;10.176;2023-02-03T06:11:38;6.60;99.90
17202;DHT22;8717;53.588;10.176;2023-02-03T06:14:07;6.60;99.90
17202;DHT22;8717;53.588;10.176;2023-02-03T06:16:33;6.60;99.90
17202;DHT22;8717;53.588;10.176;2023-02-03T06:19:01;6.60;99.90
17202;DHT22;8717;53.588;10.176;2023-02-03T06:21:28;6.60;99.90
17202;DHT22;8717;53.588;10.176;2023-02-03T06:23:55;6.60;99.90
17202;DHT22;8717;53.588;10.176;2023-02-03T06:26:22;6.60;99.90
17202;DHT22;8717;53.588;10.176;2023-02-03T06:28:49;6.60;99.90
17202;DHT22;8717;53.588;10.176;2023-02-03T06:31:16;6.60;99.90
17202;DHT22;8717;53.588;10.176;2023-02-03T06:33:42;6.60;99.90
17202;DHT22;8717;53.588;10.176;2023-02-03T06:36:10;6.60;99.90
17202;DHT22;8717;53.588;10.176;2023-02-03T06:38:37;6.60;99.90
17202;DHT22;8717;53.588;10.176;2023-02-03T06:41:04;6.60;99.90
17202;DHT22;8717;53.588;10.176;2023-02-03T06:43:30;6.60;99.90
17202;DHT22;8717;53.588;10.176;2023-02-03T06:45:57;6.60;99.90
17202;DHT22;8717;53.588;10.176;2023-02-03T06:48:24;6.60;99.90
17202;DHT22;8717;53.588;10.176;2023-02-03T06:50:51;6.60;99.90
17202;DHT22;8717;53.588;10.176;2023-02-03T06:53:19;6.60;99.90
17202;DHT22;8717;53.588;10.176;2023-02-03T06:55:46;6.60;99.90
17202;DHT22;8717;53.588;10.176;2023-02-03T06:58:13;6.60;99.90
17202;DHT22;8717;53.588;10.176;2023-02-03T07:00:43;6.60;99.90
17202;DHT22;8717;53.588;10.176;2023-02-03T07:03:12;6.70;99.90
17202;DHT22;8717;53.588;10.176;2023-02-03T07:05:39;6.70;99.90
17202;DHT22;8717;53.588;10.176;2023-02-03T07:08:06;6.70;99.90
17202;DHT22;8717;53.588;10.176;2023-02-03T07:10:34;6.70;99.90
17202;DHT22;8717;53.588;10.176;2023-02-03T07:13:02;6.70;99.90
17202;DHT22;8717;53.588;10.176;2023-02-03T07:15:29;6.80;99.90
17202;DHT22;8717;53.588;10.176;2023-02-03T07:17:55;6.80;99.90
17202;DHT22;8717;53.588;10.176;2023-02-03T07:20:23;6.80;99.90
17202;DHT22;8717;53.588;10.176;2023-02-03T07:22:56;6.80;99.90
17202;DHT22;8717;53.588;10.176;2023-02-03T07:25:24;6.80;99.90
17202;DHT22;8717;53.588;10.176;2023-02-03T07:27:52;6.90;99.90
17202;DHT22;8717;53.588;10.176;2023-02-03T07:30:19;6.90;99.90
17202;DHT22;8717;53.588;10.176;2023-02-03T07:32:46;6.90;99.90
17202;DHT22;8717;53.588;10.176;2023-02-03T07:35:14;7.00;99.90
17202;DHT22;8717;53.588;10.176;2023-02-03T07:37:41;7.00;99.90
17202;DHT22;8717;53.588;10.176;2023-02-03T07:40:08;7.00;99.90
17202;DHT22;8717;53.588;10.176;2023-02-03T07:42:37;7.00;99.90
17202;DHT22;8717;53.588;10.176;2023-02-03T07:45:09;7.00;99.90
17202;DHT22;8717;53.588;10.176;2023-02-03T07:47:38;7.00;99.90
17202;DHT22;8717;53.588;10.176;2023-02-03T07:50:06;7.00;99.90
17202;DHT22;8717;53.588;10.176;2023-02-03T07:52:32;7.10;99.90
17202;DHT22;8717;53.588;10.176;2023-02-03T07:54:59;7.10;99.90
17202;DHT22;8717;53.588;10.176;2023-02-03T07:57:26;7.10;99.90
17202;DHT22;8717;53.588;10.176;2023-02-03T07:59:52;7.10;99.90
17202;DHT22;8717;53.588;10.176;2023-02-03T08:02:22;7.10;99.90
17202;DHT22;8717;53.588;10.176;2023-02-03T08:04:48;7.10;99.90
17202;DHT22;8717;53.588;10.176;2023-02-03T08:07:15;7.10;99.90
17202;DHT22;8717;53.588;10.176;2023-02-03T08:09:41;7.10;99.90
17202;DHT22;8717;53.588;10.176;2023-02-03T08:12:08;7.10;99.90
17202;DHT22;8717;53.588;10.176;2023-02-03T08:14:35;7.10;99.90
17202;DHT22;8717;53.588;10.176;2023-02-03T08:17:02;7.00;99.90
17202;DHT22;8717;53.588;10.176;2023-02-03T08:19:32;6.90;99.90
17202;DHT22;8717;53.588;10.176;2023-02-03T08:21:59;6.70;99.90
17202;DHT22;8717;53.588;10.176;2023-02-03T08:24:26;6.60;99.90
17202;DHT22;8717;53.588;10.176;2023-02-03T08:26:53;6.40;99.90
17202;DHT22;8717;53.588;10.176;2023-02-03T08:29:20;6.30;99.90
17202;DHT22;8717;53.588;10.176;2023-02-03T08:31:46;6.10;99.90
17202;DHT22;8717;53.588;10.176;2023-02-03T08:34:13;6.10;99.90
17202;DHT22;8717;53.588;10.176;2023-02-03T08:36:41;6.00;99.90
17202;DHT22;8717;53.588;10.176;2023-02-03T08:39:09;6.00;99.90
17202;DHT22;8717;53.588;10.176;2023-02-03T08:41:35;6.00;99.90
17202;DHT22;8717;53.588;10.176;2023-02-03T08:44:05;6.00;99.90
17202;DHT22;8717;53.588;10.176;2023-02-03T08:46:32;6.00;99.90
17202;DHT22;8717;53.588;10.176;2023-02-03T08:49:00;6.10;99.90
17202;DHT22;8717;53.588;10.176;2023-02-03T08:51:28;6.20;99.90
17202;DHT22;8717;53.588;10.176;2023-02-03T08:53:56;6.20;99.90
17202;DHT22;8717;53.588;10.176;2023-02-03T08:56:23;6.20;99.90
17202;DHT22;8717;53.588;10.176;2023-02-03T08:58:52;6.30;99.90
17202;DHT22;8717;53.588;10.176;2023-02-03T09:01:18;6.30;99.90
17202;DHT22;8717;53.588;10.176;2023-02-03T09:03:45;6.30;99.90
17202;DHT22;8717;53.588;10.176;2023-02-03T09:06:12;6.40;99.90
17202;DHT22;8717;53.588;10.176;2023-02-03T09:08:41;6.50;99.90
17202;DHT22;8717;53.588;10.176;2023-02-03T09:11:10;6.40;99.90
17202;DHT22;8717;53.588;10.176;2023-02-03T09:13:37;6.50;99.90
17202;DHT22;8717;53.588;10.176;2023-02-03T09:16:05;6.50;99.90
17202;DHT22;8717;53.588;10.176;2023-02-03T09:18:32;6.50;99.90
17202;DHT22;8717;53.588;10.176;2023-02-03T09:21:02;6.50;99.90
17202;DHT22;8717;53.588;10.176;2023-02-03T09:23:29;6.50;99.90
17202;DHT22;8717;53.588;10.176;2023-02-03T09:26:00;6.60;99.90
17202;DHT22;8717;53.588;10.176;2023-02-03T09:28:30;6.60;99.90
17202;DHT22;8717;53.588;10.176;2023-02-03T09:30:59;6.60;99.90
17202;DHT22;8717;53.588;10.176;2023-02-03T09:33:26;6.60;99.90
17202;DHT22;8717;53.588;10.176;2023-02-03T09:35:53;6.60;99.90
17202;DHT22;8717;53.588;10.176;2023-02-03T09:38:20;6.70;99.90
17202;DHT22;8717;53.588;10.176;2023-02-03T09:40:50;6.70;99.90
17202;DHT22;8717;53.588;10.176;2023-02-03T09:43:31;6.80;99.90
17202;DHT22;8717;53.588;10.176;2023-02-03T09:46:06;6.70;99.90
17202;DHT22;8717;53.588;10.176;2023-02-03T09:48:36;6.80;99.90
17202;DHT22;8717;53.588;10.176;2023-02-03T09:51:16;6.80;99.90
17202;DHT22;8717;53.588;10.176;2023-02-03T09:53:49;6.80;99.90
17202;DHT22;8717;53.588;10.176;2023-02-03T09:56:22;6.90;99.90
17202;DHT22;8717;53.588;10.176;2023-02-03T09:58:52;6.90;99.90
17202;DHT22;8717;53.588;10.176;2023-02-03T10:01:20;6.90;99.90
17202;DHT22;8717;53.588;10.176;2023-02-03T10:03:51;7.00;99.90
17202;DHT22;8717;53.588;10.176;2023-02-03T10:06:28;7.00;99.90
17202;DHT22;8717;53.588;10.176;2023-02-03T10:12:15;7.00;99.90
17202;DHT22;8717;53.588;10.176;2023-02-03T10:15:02;7.10;99.90
17202;DHT22;8717;53.588;10.176;2023-02-03T10:17:36;7.10;99.90
17202;DHT22;8717;53.588;10.176;2023-02-03T10:20:10;7.10;99.90
17202;DHT22;8717;53.588;10.176;2023-02-03T10:22:40;7.10;99.90
17202;DHT22;8717;53.588;10.176;2023-02-03T10:25:16;7.10;99.90
17202;DHT22;8717;53.588;10.176;2023-02-03T10:27:46;7.20;99.90
17202;DHT22;8717;53.588;10.176;2023-02-03T10:30:19;7.20;99.90
17202;DHT22;8717;53.588;10.176;2023-02-03T10:32:48;7.20;99.90
17202;DHT22;8717;53.588;10.176;2023-02-03T10:35:17;7.20;99.90
17202;DHT22;8717;53.588;10.176;2023-02-03T10:37:49;7.20;99.90
17202;DHT22;8717;53.588;10.176;2023-02-03T10:40:19;7.30;99.90
17202;DHT22;8717;53.588;10.176;2023-02-03T10:42:47;7.30;99.90
17202;DHT22;8717;53.588;10.176;2023-02-03T10:45:36;7.40;99.90
17202;DHT22;8717;53.588;10.176;2023-02-03T10:48:04;7.40;99.90
17202;DHT22;8717;53.588;10.176;2023-02-03T10:50:34;7.40;99.90
17202;DHT22;8717;53.588;10.176;2023-02-03T10:53:21;7.40;99.90
17202;DHT22;8717;53.588;10.176;2023-02-03T10:55:49;7.40;99.90
17202;DHT22;8717;53.588;10.176;2023-02-03T10:58:21;7.40;99.90
17202;DHT22;8717;53.588;10.176;2023-02-03T11:00:56;7.40;99.90
17202;DHT22;8717;53.588;10.176;2023-02-03T11:03:26;7.40;99.90
17202;DHT22;8717;53.588;10.176;2023-02-03T11:06:06;7.40;99.90
17202;DHT22;8717;53.588;10.176;2023-02-03T11:08:34;7.40;99.90
17202;DHT22;8717;53.588;10.176;2023-02-03T11:11:06;7.40;99.90
17202;DHT22;8717;53.588;10.176;2023-02-03T11:13:33;7.30;99.90
17202;DHT22;8717;53.588;10.176;2023-02-03T11:16:03;7.30;99.90
17202;DHT22;8717;53.588;10.176;2023-02-03T11:18:35;7.30;99.90
17202;DHT22;8717;53.588;10.176;2023-02-03T11:21:07;7.30;99.90
17202;DHT22;8717;53.588;10.176;2023-02-03T11:23:34;7.30;99.90
17202;DHT22;8717;53.588;10.176;2023-02-03T11:26:09;7.30;99.90
17202;DHT22;8717;53.588;10.176;2023-02-03T11:28:41;7.30;99.90
17202;DHT22;8717;53.588;10.176;2023-02-03T11:31:17;7.30;99.90
17202;DHT22;8717;53.588;10.176;2023-02-03T11:33:53;7.30;99.90
17202;DHT22;8717;53.588;10.176;2023-02-03T11:36:23;7.30;99.90
17202;DHT22;8717;53.588;10.176;2023-02-03T11:38:50;7.40;99.90
17202;DHT22;8717;53.588;10.176;2023-02-03T11:41:19;7.40;99.90
17202;DHT22;8717;53.588;10.176;2023-02-03T11:43:46;7.40;99.90
17202;DHT22;8717;53.588;10.176;2023-02-03T11:46:15;7.50;99.90
17202;DHT22;8717;53.588;10.176;2023-02-03T11:48:57;7.50;99.90
17202;DHT22;8717;53.588;10.176;2023-02-03T11:51:34;7.50;99.90
17202;DHT22;8717;53.588;10.176;2023-02-03T11:54:16;7.50;99.90
17202;DHT22;8717;53.588;10.176;2023-02-03T11:57:16;7.60;99.90
17202;DHT22;8717;53.588;10.176;2023-02-03T12:00:07;7.60;99.90
17202;DHT22;8717;53.588;10.176;2023-02-03T12:02:58;7.60;99.90
17202;DHT22;8717;53.588;10.176;2023-02-03T12:05:52;7.70;99.90
17202;DHT22;8717;53.588;10.176;2023-02-03T12:08:31;7.70;99.90
17202;DHT22;8717;53.588;10.176;2023-02-03T12:11:10;7.70;99.90
17202;DHT22;8717;53.588;10.176;2023-02-03T12:13:56;7.80;99.90
17202;DHT22;8717;53.588;10.176;2023-02-03T12:16:45;7.70;99.90
17202;DHT22;8717;53.588;10.176;2023-02-03T12:19:21;7.70;99.90
17202;DHT22;8717;53.588;10.176;2023-02-03T12:21:56;7.80;99.90
17202;DHT22;8717;53.588;10.176;2023-02-03T12:24:32;7.80;99.90
17202;DHT22;8717;53.588;10.176;2023-02-03T12:27:13;7.80;99.90
17202;DHT22;8717;53.588;10.176;2023-02-03T12:29:43;7.80;99.90
17202;DHT22;8717;53.588;10.176;2023-02-03T12:32:16;7.90;99.90
17202;DHT22;8717;53.588;10.176;2023-02-03T12:34:49;7.80;99.90
17202;DHT22;8717;53.588;10.176;2023-02-03T12:37:22;7.80;99.90
17202;DHT22;8717;53.588;10.176;2023-02-03T12:39:51;7.80;99.90
17202;DHT22;8717;53.588;10.176;2023-02-03T12:42:20;7.80;99.90
17202;DHT22;8717;53.588;10.176;2023-02-03T12:44:51;7.70;99.90
17202;DHT22;8717;53.588;10.176;2023-02-03T12:47:25;7.80;99.90
17202;DHT22;8717;53.588;10.176;2023-02-03T12:49:57;7.70;99.90
17202;DHT22;8717;53.588;10.176;2023-02-03T12:52:29;7.70;99.90
17202;DHT22;8717;53.588;10.176;2023-02-03T12:55:02;7.70;99.90
17202;DHT22;8717;53.588;10.176;2023-02-03T12:57:35;7.60;99.90
17202;DHT22;8717;53.588;10.176;2023-02-03T13:00:18;7.60;99.90
17202;DHT22;8717;53.588;10.176;2023-02-03T13:02:56;7.60;99.90
17202;DHT22;8717;53.588;10.176;2023-02-03T13:05:31;7.60;99.90
17202;DHT22;8717;53.588;10.176;2023-02-03T13:08:06;7.50;99.90
17202;DHT22;8717;53.588;10.176;2023-02-03T13:10:40;7.50;99.90
17202;DHT22;8717;53.588;10.176;2023-02-03T13:13:12;7.50;99.90
17202;DHT22;8717;53.588;10.176;2023-02-03T13:15:43;7.50;99.90
17202;DHT22;8717;53.588;10.176;2023-02-03T13:18:18;7.40;99.90
17202;DHT22;8717;53.588;10.176;2023-02-03T13:20:52;7.40;99.90
17202;DHT22;8717;53.588;10.176;2023-02-03T13:23:20;7.40;99.90
17202;DHT22;8717;53.588;10.176;2023-02-03T13:26:10;7.40;99.90
17202;DHT22;8717;53.588;10.176;2023-02-03T13:28:57;7.30;99.90
17202;DHT22;8717;53.588;10.176;2023-02-03T13:31:38;7.30;99.90
17202;DHT22;8717;53.588;10.176;2023-02-03T13:34:27;7.40;99.90
17202;DHT22;8717;53.588;10.176;2023-02-03T13:37:33;7.30;99.90
17202;DHT22;8717;53.588;10.176;2023-02-03T13:40:21;7.20;99.90
17202;DHT22;8717;53.588;10.176;2023-02-03T13:42:55;7.20;99.90
17202;DHT22;8717;53.588;10.176;2023-02-03T13:45:26;7.20;99.90
17202;DHT22;8717;53.588;10.176;2023-02-03T13:47:56;7.20;99.90
17202;DHT22;8717;53.588;10.176;2023-02-03T13:50:24;7.20;99.90
17202;DHT22;8717;53.588;10.176;2023-02-03T13:52:55;7.10;99.90
17202;DHT22;8717;53.588;10.176;2023-02-03T13:55:30;7.20;99.90
17202;DHT22;8717;53.588;10.176;2023-02-03T13:57:58;7.20;99.90
17202;DHT22;8717;53.588;10.176;2023-02-03T14:00:58;7.10;99.90
17202;DHT22;8717;53.588;10.176;2023-02-03T14:03:45;7.10;99.90
17202;DHT22;8717;53.588;10.176;2023-02-03T14:09:40;7.10;99.90
17202;DHT22;8717;53.588;10.176;2023-02-03T14:15:27;7.10;99.90
17202;DHT22;8717;53.588;10.176;2023-02-03T14:18:01;7.10;99.90
17202;DHT22;8717;53.588;10.176;2023-02-03T14:20:44;7.10;99.90
17202;DHT22;8717;53.588;10.176;2023-02-03T14:23:20;7.10;99.90
17202;DHT22;8717;53.588;10.176;2023-02-03T14:25:52;7.10;99.90
17202;DHT22;8717;53.588;10.176;2023-02-03T14:28:21;7.00;99.90
17202;DHT22;8717;53.588;10.176;2023-02-03T14:31:19;7.00;99.90
17202;DHT22;8717;53.588;10.176;2023-02-03T14:36:51;7.00;99.90
17202;DHT22;8717;53.588;10.176;2023-02-03T14:39:37;6.90;99.90
17202;DHT22;8717;53.588;10.176;2023-02-03T14:42:20;6.90;99.90
17202;DHT22;8717;53.588;10.176;2023-02-03T14:44:58;6.90;99.90
17202;DHT22;8717;53.588;10.176;2023-02-03T14:47:41;6.90;99.90
17202;DHT22;8717;53.588;10.176;2023-02-03T14:50:31;6.90;99.90
17202;DHT22;8717;53.588;10.176;2023-02-03T14:53:11;6.90;99.90
17202;DHT22;8717;53.588;10.176;2023-02-03T14:55:51;6.80;99.90
17202;DHT22;8717;53.588;10.176;2023-02-03T14:58:27;6.90;99.90
17202;DHT22;8717;53.588;10.176;2023-02-03T15:00:55;6.80;99.90
17202;DHT22;8717;53.588;10.176;2023-02-03T15:03:26;6.80;99.90
17202;DHT22;8717;53.588;10.176;2023-02-03T15:06:00;6.80;99.90
17202;DHT22;8717;53.588;10.176;2023-02-03T15:08:35;6.80;99.90
17202;DHT22;8717;53.588;10.176;2023-02-03T15:11:18;6.80;99.90
17202;DHT22;8717;53.588;10.176;2023-02-03T15:13:48;6.80;99.90
17202;DHT22;8717;53.588;10.176;2023-02-03T15:16:18;6.70;99.90
17202;DHT22;8717;53.588;10.176;2023-02-03T15:18:49;6.70;99.90
17202;DHT22;8717;53.588;10.176;2023-02-03T15:21:19;6.70;99.90
17202;DHT22;8717;53.588;10.176;2023-02-03T15:23:47;6.70;99.90
17202;DHT22;8717;53.588;10.176;2023-02-03T15:26:17;6.70;99.90
17202;DHT22;8717;53.588;10.176;2023-02-03T15:28:55;6.70;99.90
17202;DHT22;8717;53.588;10.176;2023-02-03T15:31:25;6.70;99.90
17202;DHT22;8717;53.588;10.176;2023-02-03T15:34:00;6.70;99.90
17202;DHT22;8717;53.588;10.176;2023-02-03T15:36:35;6.70;99.90
17202;DHT22;8717;53.588;10.176;2023-02-03T15:39:14;6.70;99.90
17202;DHT22;8717;53.588;10.176;2023-02-03T15:41:43;6.70;99.90
17202;DHT22;8717;53.588;10.176;2023-02-03T15:44:22;6.70;99.90
17202;DHT22;8717;53.588;10.176;2023-02-03T15:46:53;6.60;99.90
17202;DHT22;8717;53.588;10.176;2023-02-03T15:49:22;6.60;99.90
17202;DHT22;8717;53.588;10.176;2023-02-03T15:51:52;6.60;99.90
17202;DHT22;8717;53.588;10.176;2023-02-03T15:54:24;6.60;99.90
17202;DHT22;8717;53.588;10.176;2023-02-03T15:56:58;6.60;99.90
17202;DHT22;8717;53.588;10.176;2023-02-03T15:59:32;6.60;99.90
17202;DHT22;8717;53.588;10.176;2023-02-03T16:02:01;6.70;99.90
17202;DHT22;8717;53.588;10.176;2023-02-03T16:04:31;6.60;99.90
17202;DHT22;8717;53.588;10.176;2023-02-03T16:06:59;6.60;99.90
17202;DHT22;8717;53.588;10.176;2023-02-03T16:09:28;6.60;99.90
17202;DHT22;8717;53.588;10.176;2023-02-03T16:12:16;6.60;99.90
17202;DHT22;8717;53.588;10.176;2023-02-03T16:14:44;6.50;99.90
17202;DHT22;8717;53.588;10.176;2023-02-03T16:17:23;6.50;99.90
17202;DHT22;8717;53.588;10.176;2023-02-03T16:19:51;6.50;99.90
17202;DHT22;8717;53.588;10.176;2023-02-03T16:22:27;6.50;99.90
17202;DHT22;8717;53.588;10.176;2023-02-03T16:24:54;6.40;99.90
17202;DHT22;8717;53.588;10.176;2023-02-03T16:27:32;6.40;99.90